Dirj, Libya
Current Conditions -  °F | °C
As of 9:00 PM on Thursday 30 Oct 2014 (Local Time) from DTTD Reporting Station
Scattered Clouds Scattered Clouds  
Wind Chill: 68°   Ceiling: Unl
Heat Index: 68°   Visibility: 5mi
Dew Point: 52°   Wind: 9mph
Humidity: 56%   Direction: 60°ENE
Pressure: 30.12"   Gusts: NA
Location:  30.17°N, 10.46°E
Report Text: DTTD 301800Z 06008KT 020V090 8000 SCT026 20/11 Q1020
Loading
Personal Weather Stations






























Interactive Weather Map
Tropical Storm Tracking
New forecast layout! Learn more

10-Day Weather Forecast

Advertisements
Track Severe Weather on mobile